Time;durP1;ratioP1;P1;durP2;ratioP2;P2;SDS_P1;SDS_P2;PMS_P1;PMS_P2;Temp;Humidity;BMP_temperature;BMP_pressure;BME280_temperature;BME280_humidity;BME280_pressure;Samples;Min_cycle;Max_cycle;Signal;HPM_P1;HPM_P2
2023/06/06 00:00:14;;;;;;;4.07;2.45;;;;;;;;;;4987569;28;20037;-90
2023/06/06 00:02:43;;;;;;;4.57;2.60;;;;;;;;;;4981819;28;20072;-89
2023/06/06 00:05:11;;;;;;;8.93;2.33;;;;;;;;;;4980566;28;20041;-90
2023/06/06 00:07:37;;;;;;;4.78;2.25;;;;;;;;;;4984507;28;20456;-91
2023/06/06 00:10:03;;;;;;;10.75;2.47;;;;;;;;;;4981075;28;20019;-90
2023/06/06 00:12:32;;;;;;;7.80;2.60;;;;;;;;;;4989908;28;20543;-90
2023/06/06 00:14:59;;;;;;;8.43;2.50;;;;;;;;;;4988915;28;20394;-90
2023/06/06 00:17:25;;;;;;;5.18;2.67;;;;;;;;;;4979977;28;20018;-89
2023/06/06 00:19:52;;;;;;;5.15;2.65;;;;;;;;;;4981107;28;20021;-89
2023/06/06 00:22:20;;;;;;;5.50;2.30;;;;;;;;;;4982522;28;20109;-89
2023/06/06 00:24:49;;;;;;;4.82;2.55;;;;;;;;;;4989775;28;20098;-88
2023/06/06 00:27:14;;;;;;;5.88;2.88;;;;;;;;;;4981844;28;20023;-89
2023/06/06 00:29:40;;;;;;;6.68;3.13;;;;;;;;;;4983197;28;20034;-90
2023/06/06 00:32:05;;;;;;;8.15;3.10;;;;;;;;;;4983339;28;20029;-90
2023/06/06 00:34:30;;;;;;;7.72;2.70;;;;;;;;;;4977429;28;20045;-89
2023/06/06 00:36:56;;;;;;;6.40;2.55;;;;;;;;;;4989259;28;20022;-89
2023/06/06 00:39:21;;;;;;;4.88;2.58;;;;;;;;;;4989611;28;20068;-90
2023/06/06 00:41:47;;;;;;;6.10;2.53;;;;;;;;;;4985348;28;20474;-89
2023/06/06 00:44:12;;;;;;;5.32;2.70;;;;;;;;;;4987269;28;20276;-90
2023/06/06 00:46:37;;;;;;;5.78;2.55;;;;;;;;;;4983270;28;20022;-89
2023/06/06 00:49:02;;;;;;;4.55;2.50;;;;;;;;;;4985715;28;20462;-90
2023/06/06 00:51:28;;;;;;;8.85;2.90;;;;;;;;;;4992768;28;20492;-90
2023/06/06 00:53:54;;;;;;;7.10;3.97;;;;;;;;;;4994147;28;20041;-89
2023/06/06 00:56:22;;;;;;;4.05;2.42;;;;;;;;;;4986297;28;20061;-89
2023/06/06 00:58:47;;;;;;;9.85;2.83;;;;;;;;;;4988798;28;20500;-89
2023/06/06 01:01:13;;;;;;;6.43;2.67;;;;;;;;;;4984758;28;20117;-90
2023/06/06 01:03:40;;;;;;;4.88;2.53;;;;;;;;;;4992636;28;20265;-89
2023/06/06 01:06:06;;;;;;;7.75;3.50;;;;;;;;;;4989606;28;20109;-88
2023/06/06 01:08:31;;;;;;;7.68;2.90;;;;;;;;;;4991170;28;20109;-90
2023/06/06 01:11:05;;;;;;;6.80;3.20;;;;;;;;;;4986446;28;20113;-91
2023/06/06 01:13:57;;;;;;;16.90;3.05;;;;;;;;;;4985405;28;20785;-90
2023/06/06 01:16:22;;;;;;;4.78;2.58;;;;;;;;;;4976997;28;20121;-89
2023/06/06 01:18:48;;;;;;;8.65;3.72;;;;;;;;;;4989413;28;20042;-90
2023/06/06 01:21:14;;;;;;;7.35;3.53;;;;;;;;;;4986287;28;20109;-90
2023/06/06 01:23:43;;;;;;;7.75;3.25;;;;;;;;;;4983780;28;20069;-90
2023/06/06 01:26:08;;;;;;;9.68;3.80;;;;;;;;;;4991676;28;20053;-89
2023/06/06 01:28:33;;;;;;;7.65;2.90;;;;;;;;;;4990101;28;20019;-89
2023/06/06 01:30:59;;;;;;;9.90;3.47;;;;;;;;;;4989619;28;20088;-89
2023/06/06 01:33:25;;;;;;;9.25;3.42;;;;;;;;;;4985592;28;20745;-90
2023/06/06 01:36:10;;;;;;;7.35;3.67;;;;;;;;;;4989653;28;20042;-90
2023/06/06 01:38:38;;;;;;;6.32;2.80;;;;;;;;;;4987829;28;20073;-90
2023/06/06 01:41:04;;;;;;;5.97;2.78;;;;;;;;;;4982334;28;20015;-90
2023/06/06 01:43:31;;;;;;;6.47;3.45;;;;;;;;;;4985906;28;20121;-90
2023/06/06 01:45:57;;;;;;;8.18;3.75;;;;;;;;;;4988867;28;20026;-89
2023/06/06 01:48:23;;;;;;;7.53;3.47;;;;;;;;;;4984928;28;20743;-90
2023/06/06 01:50:49;;;;;;;8.45;3.30;;;;;;;;;;4989787;28;20044;-90
2023/06/06 01:53:14;;;;;;;5.80;3.20;;;;;;;;;;4987530;28;20486;-90
2023/06/06 01:55:41;;;;;;;6.50;3.60;;;;;;;;;;4982931;28;20014;-91
2023/06/06 01:58:07;;;;;;;11.60;3.28;;;;;;;;;;4991317;28;20589;-90
2023/06/06 02:00:32;;;;;;;8.07;3.47;;;;;;;;;;4988485;28;20098;-89
2023/06/06 02:02:57;;;;;;;10.40;3.63;;;;;;;;;;4985935;28;20042;-90
2023/06/06 02:05:22;;;;;;;9.80;3.13;;;;;;;;;;4985632;28;20552;-90
2023/06/06 02:07:49;;;;;;;6.03;3.50;;;;;;;;;;4990627;28;20461;-90
2023/06/06 02:10:14;;;;;;;9.23;3.78;;;;;;;;;;4987246;28;20698;-90
2023/06/06 02:12:40;;;;;;;12.02;3.40;;;;;;;;;;4988972;28;20026;-89
2023/06/06 02:15:05;;;;;;;6.77;3.27;;;;;;;;;;4984192;28;20042;-90
2023/06/06 02:17:32;;;;;;;6.82;3.05;;;;;;;;;;4989066;28;20385;-90
2023/06/06 02:19:57;;;;;;;5.53;3.28;;;;;;;;;;4983350;28;20098;-89
2023/06/06 02:22:22;;;;;;;9.23;3.72;;;;;;;;;;4987926;28;20105;-90
2023/06/06 02:24:49;;;;;;;8.67;3.37;;;;;;;;;;4987820;28;20065;-89
2023/06/06 02:27:15;;;;;;;10.32;4.28;;;;;;;;;;4988091;28;20285;-90
2023/06/06 02:29:40;;;;;;;7.90;3.67;;;;;;;;;;4991392;28;20097;-89
2023/06/06 02:32:06;;;;;;;7.78;3.50;;;;;;;;;;4988505;28;20026;-89
2023/06/06 02:34:31;;;;;;;10.93;3.85;;;;;;;;;;4990401;28;20425;-90
2023/06/06 02:36:59;;;;;;;7.97;3.90;;;;;;;;;;4990904;28;20093;-89
2023/06/06 02:39:25;;;;;;;6.38;3.42;;;;;;;;;;4988682;28;20034;-89
2023/06/06 02:41:50;;;;;;;8.77;3.00;;;;;;;;;;4988177;28;20026;-89
2023/06/06 02:44:17;;;;;;;8.40;3.63;;;;;;;;;;4987936;28;20018;-89
2023/06/06 02:46:42;;;;;;;7.35;3.28;;;;;;;;;;4989132;28;20022;-90
2023/06/06 02:49:07;;;;;;;5.65;3.33;;;;;;;;;;4990176;28;20014;-90
2023/06/06 02:51:32;;;;;;;6.10;3.67;;;;;;;;;;4989559;28;20025;-90
2023/06/06 02:53:58;;;;;;;7.97;3.45;;;;;;;;;;4990090;28;20273;-90
2023/06/06 02:56:23;;;;;;;7.55;3.50;;;;;;;;;;4983377;28;20029;-90
2023/06/06 02:58:48;;;;;;;5.18;3.42;;;;;;;;;;4987372;28;20018;-89
2023/06/06 03:01:13;;;;;;;8.20;4.50;;;;;;;;;;4988578;28;20455;-90
2023/06/06 03:03:39;;;;;;;9.45;4.25;;;;;;;;;;4984768;28;20270;-89
2023/06/06 03:06:06;;;;;;;10.55;3.83;;;;;;;;;;4988569;28;20018;-89
2023/06/06 03:08:32;;;;;;;7.95;3.92;;;;;;;;;;4982139;28;20400;-90
2023/06/06 03:10:57;;;;;;;23.23;4.32;;;;;;;;;;4989995;28;20093;-89
2023/06/06 03:13:22;;;;;;;7.00;3.22;;;;;;;;;;4980017;28;20018;-89
2023/06/06 03:15:48;;;;;;;8.52;3.53;;;;;;;;;;4986084;28;20501;-90
2023/06/06 03:18:17;;;;;;;6.93;3.42;;;;;;;;;;4988227;28;20025;-90
2023/06/06 03:20:46;;;;;;;6.00;3.25;;;;;;;;;;4989672;28;20080;-89
2023/06/06 03:23:12;;;;;;;6.10;3.80;;;;;;;;;;4988433;28;20057;-89
2023/06/06 03:25:41;;;;;;;7.22;3.75;;;;;;;;;;4983502;28;20054;-89
2023/06/06 03:28:06;;;;;;;11.52;4.10;;;;;;;;;;4990936;28;20041;-89
2023/06/06 03:30:31;;;;;;;8.23;3.80;;;;;;;;;;4987699;28;20018;-90
2023/06/06 03:32:57;;;;;;;12.57;3.83;;;;;;;;;;4989966;28;20026;-90
2023/06/06 03:35:23;;;;;;;6.32;3.58;;;;;;;;;;4988722;28;20282;-90
2023/06/06 03:37:48;;;;;;;9.85;3.58;;;;;;;;;;4987095;28;20513;-90
2023/06/06 03:40:14;;;;;;;6.13;3.33;;;;;;;;;;4985593;28;20022;-89
2023/06/06 03:42:39;;;;;;;11.32;3.58;;;;;;;;;;4987769;28;20277;-90
2023/06/06 03:45:05;;;;;;;6.18;3.72;;;;;;;;;;4989469;28;20097;-90
2023/06/06 03:47:30;;;;;;;8.43;3.50;;;;;;;;;;4983467;28;20142;-90
2023/06/06 03:49:55;;;;;;;7.35;3.00;;;;;;;;;;4984981;28;20025;-89
2023/06/06 03:52:21;;;;;;;6.53;3.83;;;;;;;;;;4976830;28;20026;-90
2023/06/06 03:54:46;;;;;;;11.35;3.40;;;;;;;;;;4982436;28;20052;-89
2023/06/06 03:57:11;;;;;;;10.15;3.38;;;;;;;;;;4984410;28;20080;-90
2023/06/06 03:59:40;;;;;;;6.80;3.93;;;;;;;;;;4989912;28;20046;-90
2023/06/06 04:02:06;;;;;;;10.13;3.53;;;;;;;;;;4989525;28;20630;-91
2023/06/06 04:04:31;;;;;;;8.48;4.50;;;;;;;;;;4988765;28;20077;-90
2023/06/06 04:06:57;;;;;;;9.67;3.27;;;;;;;;;;4983457;28;20027;-89
2023/06/06 04:09:22;;;;;;;16.45;3.72;;;;;;;;;;4987496;28;20299;-90
2023/06/06 04:11:48;;;;;;;6.95;3.80;;;;;;;;;;4986581;28;20595;-90
2023/06/06 04:14:13;;;;;;;6.25;3.63;;;;;;;;;;4987928;28;20026;-90
2023/06/06 04:16:40;;;;;;;7.75;3.85;;;;;;;;;;4989858;28;20389;-89
2023/06/06 04:19:06;;;;;;;9.10;4.32;;;;;;;;;;4988596;28;20029;-89
2023/06/06 04:21:32;;;;;;;8.52;3.55;;;;;;;;;;4979174;28;20015;-89
2023/06/06 04:23:57;;;;;;;12.10;3.75;;;;;;;;;;4989769;28;20093;-89
2023/06/06 04:26:23;;;;;;;6.45;3.60;;;;;;;;;;4987002;28;20173;-90
2023/06/06 04:28:53;;;;;;;8.98;3.58;;;;;;;;;;4987696;28;20030;-89
2023/06/06 04:31:23;;;;;;;8.98;3.65;;;;;;;;;;4986129;28;20033;-90
2023/06/06 04:33:53;;;;;;;5.72;3.65;;;;;;;;;;4987160;28;20030;-90
2023/06/06 04:36:18;;;;;;;7.53;3.00;;;;;;;;;;4981700;28;20022;-89
2023/06/06 04:38:46;;;;;;;7.30;3.95;;;;;;;;;;4986513;28;20379;-89
2023/06/06 04:41:12;;;;;;;9.80;4.55;;;;;;;;;;4988040;28;20651;-89
2023/06/06 04:43:38;;;;;;;12.05;5.35;;;;;;;;;;4989375;28;20023;-89
2023/06/06 04:46:03;;;;;;;7.35;4.07;;;;;;;;;;4989538;28;20057;-89
2023/06/06 04:48:28;;;;;;;12.48;3.63;;;;;;;;;;4986115;28;20084;-90
2023/06/06 04:50:55;;;;;;;6.90;3.63;;;;;;;;;;4984178;28;20078;-90
2023/06/06 04:53:21;;;;;;;6.10;3.78;;;;;;;;;;4985362;28;20085;-90
2023/06/06 04:55:47;;;;;;;6.82;3.80;;;;;;;;;;4989580;28;20421;-90
2023/06/06 04:58:14;;;;;;;7.57;4.07;;;;;;;;;;4986715;28;20024;-89
2023/06/06 05:00:42;;;;;;;9.30;5.40;;;;;;;;;;4980798;28;20046;-89
2023/06/06 05:03:07;;;;;;;6.88;3.78;;;;;;;;;;4984164;28;20022;-90
2023/06/06 05:05:32;;;;;;;10.02;4.82;;;;;;;;;;4985871;28;20022;-89
2023/06/06 05:07:57;;;;;;;14.00;5.13;;;;;;;;;;4987588;28;20030;-89
2023/06/06 05:10:22;;;;;;;12.00;4.77;;;;;;;;;;4981547;28;20506;-90
2023/06/06 05:12:48;;;;;;;10.93;5.22;;;;;;;;;;4985297;28;20277;-90
2023/06/06 05:15:13;;;;;;;12.23;5.35;;;;;;;;;;4983766;28;20034;-90
2023/06/06 05:17:38;;;;;;;18.33;5.70;;;;;;;;;;4984301;28;20038;-90
2023/06/06 05:20:08;;;;;;;16.98;5.88;;;;;;;;;;4987347;28;20023;-90
2023/06/06 05:22:34;;;;;;;22.05;7.32;;;;;;;;;;4981113;28;20022;-90
2023/06/06 05:24:59;;;;;;;22.58;6.78;;;;;;;;;;4984698;28;20041;-90
2023/06/06 05:27:24;;;;;;;16.92;6.70;;;;;;;;;;5002490;28;20104;-90
2023/06/06 05:29:50;;;;;;;11.05;5.88;;;;;;;;;;4984043;28;20026;-91
2023/06/06 05:32:15;;;;;;;16.40;7.53;;;;;;;;;;4983159;28;20030;-90
2023/06/06 05:34:40;;;;;;;12.90;6.57;;;;;;;;;;4985892;28;20485;-90
2023/06/06 05:37:06;;;;;;;16.55;6.38;;;;;;;;;;4990596;28;20504;-89
2023/06/06 05:39:40;;;;;;;16.05;6.53;;;;;;;;;;4986653;28;20021;-91
2023/06/06 05:42:06;;;;;;;13.98;7.22;;;;;;;;;;4980633;28;20526;-90
2023/06/06 05:44:31;;;;;;;15.90;7.78;;;;;;;;;;4982348;28;20038;-90
2023/06/06 05:46:56;;;;;;;15.63;6.93;;;;;;;;;;4983404;28;20034;-90
2023/06/06 05:49:29;;;;;;;12.85;5.78;;;;;;;;;;4983811;28;20038;-90
2023/06/06 05:52:01;;;;;;;12.68;6.15;;;;;;;;;;4982130;28;20019;-90
2023/06/06 05:54:26;;;;;;;19.40;6.10;;;;;;;;;;4985008;28;20053;-89
2023/06/06 05:56:51;;;;;;;13.15;6.60;;;;;;;;;;4986356;28;20018;-89
2023/06/06 05:59:16;;;;;;;9.53;5.90;;;;;;;;;;4990641;28;20015;-89
2023/06/06 06:01:42;;;;;;;13.63;6.00;;;;;;;;;;4988772;28;20274;-88
2023/06/06 06:04:07;;;;;;;13.90;6.35;;;;;;;;;;4982453;28;20285;-88
2023/06/06 06:06:33;;;;;;;21.20;6.72;;;;;;;;;;4984285;28;20037;-88
2023/06/06 06:09:02;;;;;;;17.35;6.63;;;;;;;;;;4980495;28;20037;-89
2023/06/06 06:11:27;;;;;;;14.15;6.57;;;;;;;;;;4985610;28;20493;-89
2023/06/06 06:13:52;;;;;;;12.00;6.18;;;;;;;;;;4983966;28;20026;-90
2023/06/06 06:16:17;;;;;;;12.43;6.28;;;;;;;;;;4983082;28;20113;-90
2023/06/06 06:18:43;;;;;;;17.38;7.05;;;;;;;;;;4982952;28;20117;-89
2023/06/06 06:21:08;;;;;;;17.02;6.50;;;;;;;;;;4981354;28;20034;-89
2023/06/06 06:23:33;;;;;;;14.97;5.57;;;;;;;;;;4984453;28;20434;-89
2023/06/06 06:25:59;;;;;;;43.07;8.97;;;;;;;;;;4987460;28;20294;-89
2023/06/06 06:28:25;;;;;;;16.35;6.70;;;;;;;;;;4990819;28;20288;-89
2023/06/06 06:30:50;;;;;;;10.65;6.28;;;;;;;;;;4988957;28;20072;-89
2023/06/06 06:33:16;;;;;;;14.05;6.18;;;;;;;;;;4989237;28;20030;-89
2023/06/06 06:35:42;;;;;;;12.40;6.22;;;;;;;;;;4990854;28;20022;-89
2023/06/06 06:38:07;;;;;;;15.50;6.30;;;;;;;;;;4988759;28;20022;-89
2023/06/06 06:40:32;;;;;;;12.07;6.50;;;;;;;;;;4987424;28;20029;-90
2023/06/06 06:42:57;;;;;;;16.57;6.40;;;;;;;;;;4990006;28;20037;-89
2023/06/06 06:45:23;;;;;;;12.63;6.07;;;;;;;;;;4984533;28;20281;-91
2023/06/06 06:47:49;;;;;;;16.75;6.32;;;;;;;;;;4983609;28;20277;-91
2023/06/06 06:50:14;;;;;;;14.38;5.60;;;;;;;;;;4986222;28;20030;-91
2023/06/06 06:52:39;;;;;;;10.90;5.00;;;;;;;;;;4989277;28;20104;-91
2023/06/06 06:55:05;;;;;;;12.23;5.40;;;;;;;;;;4985749;28;20066;-92
2023/06/06 06:57:31;;;;;;;11.93;6.53;;;;;;;;;;4990924;28;20097;-92
2023/06/06 06:59:56;;;;;;;11.63;5.00;;;;;;;;;;4986989;28;20023;-91
2023/06/06 07:02:26;;;;;;;10.33;5.37;;;;;;;;;;4984222;28;20036;-90
2023/06/06 07:04:51;;;;;;;12.70;5.25;;;;;;;;;;4986783;28;20273;-91
2023/06/06 07:07:17;;;;;;;12.48;6.25;;;;;;;;;;4984096;28;20033;-91
2023/06/06 07:09:43;;;;;;;12.77;5.60;;;;;;;;;;4985730;28;20121;-92
2023/06/06 07:12:10;;;;;;;10.52;5.18;;;;;;;;;;4983391;28;20470;-91
2023/06/06 07:14:38;;;;;;;10.73;4.78;;;;;;;;;;4984116;28;20030;-92
2023/06/06 07:17:05;;;;;;;11.13;4.85;;;;;;;;;;4987490;28;20018;-91
2023/06/06 07:19:30;;;;;;;9.68;5.10;;;;;;;;;;4990613;28;20019;-91
2023/06/06 07:21:56;;;;;;;12.57;5.35;;;;;;;;;;4993810;28;20025;-91
2023/06/06 07:24:22;;;;;;;16.95;6.00;;;;;;;;;;4988792;28;20023;-91
2023/06/06 07:26:47;;;;;;;11.07;5.13;;;;;;;;;;4983810;28;20077;-92
2023/06/06 07:29:13;;;;;;;13.50;5.50;;;;;;;;;;4985145;28;20027;-90
2023/06/06 07:31:38;;;;;;;9.88;4.90;;;;;;;;;;4986480;28;20037;-92
2023/06/06 07:34:03;;;;;;;10.18;4.78;;;;;;;;;;4989020;28;20042;-91
2023/06/06 07:36:29;;;;;;;11.50;5.38;;;;;;;;;;4988281;28;20026;-90
2023/06/06 07:38:54;;;;;;;13.35;5.00;;;;;;;;;;4987888;28;20470;-91
2023/06/06 07:41:21;;;;;;;11.30;4.72;;;;;;;;;;4987259;28;20021;-91
2023/06/06 07:43:47;;;;;;;7.50;4.50;;;;;;;;;;4986692;28;20105;-91
2023/06/06 07:46:12;;;;;;;8.17;4.80;;;;;;;;;;4985305;28;20117;-92
2023/06/06 07:48:37;;;;;;;9.18;4.93;;;;;;;;;;4989566;28;20269;-91
2023/06/06 07:51:02;;;;;;;11.20;5.32;;;;;;;;;;4987715;28;20018;-92
2023/06/06 07:53:28;;;;;;;13.73;4.95;;;;;;;;;;4982856;28;20034;-92
2023/06/06 07:55:53;;;;;;;12.40;5.22;;;;;;;;;;4984266;28;20029;-92
2023/06/06 07:58:25;;;;;;;14.93;6.28;;;;;;;;;;4981652;28;20018;-92
2023/06/06 08:00:50;;;;;;;9.32;5.43;;;;;;;;;;4981504;28;20730;-91
2023/06/06 08:03:19;;;;;;;14.38;5.75;;;;;;;;;;4983642;28;20023;-91
2023/06/06 08:05:44;;;;;;;8.27;5.10;;;;;;;;;;4984476;28;20029;-92
2023/06/06 08:08:09;;;;;;;15.88;5.82;;;;;;;;;;4987500;28;20117;-91
2023/06/06 08:10:34;;;;;;;10.75;5.57;;;;;;;;;;4985460;28;20026;-91
2023/06/06 08:13:00;;;;;;;14.50;4.90;;;;;;;;;;4988534;28;20142;-93
2023/06/06 08:15:25;;;;;;;11.63;5.63;;;;;;;;;;4987954;28;20360;-91
2023/06/06 08:17:51;;;;;;;11.18;4.90;;;;;;;;;;4987042;28;20037;-91
2023/06/06 08:20:16;;;;;;;9.45;5.00;;;;;;;;;;4986023;28;20100;-91
2023/06/06 08:23:08;;;;;;;10.30;5.18;;;;;;;;;;4989624;28;20097;-91
2023/06/06 08:25:37;;;;;;;14.02;5.07;;;;;;;;;;4977910;28;20525;-92
2023/06/06 08:28:03;;;;;;;13.32;5.40;;;;;;;;;;4988208;28;20109;-92
2023/06/06 08:30:28;;;;;;;17.08;4.80;;;;;;;;;;4986097;28;20127;-91
2023/06/06 08:32:56;;;;;;;8.47;5.33;;;;;;;;;;4987089;28;20508;-91
2023/06/06 08:35:22;;;;;;;11.15;4.70;;;;;;;;;;4987076;28;20320;-91
2023/06/06 08:37:48;;;;;;;14.48;4.82;;;;;;;;;;4988722;28;20046;-93
2023/06/06 08:40:13;;;;;;;14.75;5.50;;;;;;;;;;4988448;28;20058;-93
2023/06/06 08:42:42;;;;;;;13.45;4.90;;;;;;;;;;4986837;28;20022;-91
2023/06/06 08:45:08;;;;;;;10.70;4.95;;;;;;;;;;4980854;28;20022;-91
2023/06/06 08:47:34;;;;;;;16.90;4.85;;;;;;;;;;4973228;28;20034;-90
2023/06/06 08:50:00;;;;;;;20.83;4.88;;;;;;;;;;4987003;28;20022;-91
2023/06/06 08:52:27;;;;;;;9.82;5.35;;;;;;;;;;4986786;28;20057;-91
2023/06/06 08:54:52;;;;;;;12.20;5.13;;;;;;;;;;4987162;28;20033;-91
2023/06/06 08:57:19;;;;;;;14.65;5.43;;;;;;;;;;4985702;28;20031;-89
2023/06/06 08:59:47;;;;;;;13.88;5.50;;;;;;;;;;4984196;28;20102;-90
2023/06/06 09:02:13;;;;;;;10.13;5.10;;;;;;;;;;4984900;28;20027;-91
2023/06/06 09:04:38;;;;;;;14.80;5.30;;;;;;;;;;4981204;28;20510;-89
2023/06/06 09:07:08;;;;;;;13.85;6.13;;;;;;;;;;4986066;28;20482;-91
2023/06/06 09:09:35;;;;;;;16.00;5.32;;;;;;;;;;4986014;28;20066;-91
2023/06/06 09:12:00;;;;;;;9.38;4.80;;;;;;;;;;4986673;28;20034;-91
2023/06/06 09:14:26;;;;;;;15.98;5.18;;;;;;;;;;4981259;28;20026;-92
2023/06/06 09:16:51;;;;;;;13.30;5.45;;;;;;;;;;4987976;28;20018;-91
2023/06/06 09:19:22;;;;;;;12.05;4.90;;;;;;;;;;4983471;28;20088;-91
2023/06/06 09:21:48;;;;;;;12.25;5.18;;;;;;;;;;4990804;28;20559;-91
2023/06/06 09:24:15;;;;;;;20.13;5.63;;;;;;;;;;4989568;28;20062;-91
2023/06/06 09:26:40;;;;;;;12.65;6.00;;;;;;;;;;4987471;28;20080;-90
2023/06/06 09:29:08;;;;;;;8.93;4.77;;;;;;;;;;4988214;28;20104;-91
2023/06/06 09:31:37;;;;;;;12.55;5.78;;;;;;;;;;4987556;28;20428;-91
2023/06/06 09:34:06;;;;;;;14.40;5.00;;;;;;;;;;4989436;28;20054;-91
2023/06/06 09:36:31;;;;;;;11.13;6.00;;;;;;;;;;4980023;28;20018;-92
2023/06/06 09:39:11;;;;;;;12.37;6.10;;;;;;;;;;4988717;28;20029;-92
2023/06/06 09:41:36;;;;;;;;;;;;;;;;;;4982876;28;20376;-91
2023/06/06 09:44:03;;;;;;;10.00;4.13;;;;;;;;;;4985747;28;19988;-91
2023/06/06 09:46:28;;;;;;;15.95;5.90;;;;;;;;;;4983782;28;20658;-92
2023/06/06 09:48:58;;;;;;;16.88;6.13;;;;;;;;;;4985320;28;20050;-91
2023/06/06 09:51:23;;;;;;;15.40;5.78;;;;;;;;;;4986243;28;20041;-92
2023/06/06 09:53:50;;;;;;;12.98;4.40;;;;;;;;;;4988831;28;20424;-90
2023/06/06 09:56:18;;;;;;;12.57;5.00;;;;;;;;;;4983607;28;20037;-92
2023/06/06 09:58:45;;;;;;;14.52;5.72;;;;;;;;;;4987926;28;20018;-91
2023/06/06 10:01:11;;;;;;;13.15;5.05;;;;;;;;;;4984376;28;20101;-90
2023/06/06 10:03:37;;;;;;;7.28;4.70;;;;;;;;;;4981236;28;20102;-91
2023/06/06 10:06:06;;;;;;;11.45;5.43;;;;;;;;;;4987110;28;20026;-92
2023/06/06 10:08:31;;;;;;;16.00;6.28;;;;;;;;;;4988497;28;20022;-91
2023/06/06 10:11:10;;;;;;;;;;;;;;;;;;;;;
2023/06/06 10:13:39;;;;;;;18.48;5.60;;;;;;;;;;4987154;28;20015;-91
2023/06/06 10:16:06;;;;;;;15.40;5.45;;;;;;;;;;4984785;28;20034;-93
2023/06/06 10:18:32;;;;;;;11.90;5.40;;;;;;;;;;4981167;28;20022;-91
2023/06/06 10:20:57;;;;;;;14.98;6.00;;;;;;;;;;4987721;28;20007;-92
2023/06/06 10:23:23;;;;;;;12.27;4.65;;;;;;;;;;4984845;28;20024;-90
2023/06/06 10:25:52;;;;;;;9.88;5.28;;;;;;;;;;4985709;28;20557;-92
2023/06/06 10:28:38;;;;;;;13.13;5.32;;;;;;;;;;4984406;28;20118;-91
2023/06/06 10:31:16;;;;;;;13.43;4.32;;;;;;;;;;4982140;28;20108;-91
2023/06/06 10:33:47;;;;;;;12.27;6.65;;;;;;;;;;4980173;28;20015;-91
2023/06/06 10:36:15;;;;;;;13.02;5.07;;;;;;;;;;4979989;28;20434;-90
2023/06/06 10:38:43;;;;;;;12.00;4.78;;;;;;;;;;4984648;28;20022;-91
2023/06/06 10:41:18;;;;;;;13.60;4.68;;;;;;;;;;4986600;28;20532;-92
2023/06/06 10:43:44;;;;;;;8.55;4.28;;;;;;;;;;4985294;28;20453;-92
2023/06/06 10:46:12;;;;;;;12.95;4.78;;;;;;;;;;4981537;28;20026;-92
2023/06/06 10:48:41;;;;;;;11.98;4.68;;;;;;;;;;4985456;28;20398;-92
2023/06/06 10:51:11;;;;;;;12.32;5.53;;;;;;;;;;4990166;28;20101;-90
2023/06/06 10:53:41;;;;;;;11.05;4.50;;;;;;;;;;4981690;28;20395;-91
2023/06/06 10:56:06;;;;;;;13.75;4.13;;;;;;;;;;4987819;28;20030;-91
2023/06/06 10:58:32;;;;;;;17.30;3.85;;;;;;;;;;4985466;28;20028;-93
2023/06/06 11:01:05;;;;;;;9.80;3.88;;;;;;;;;;4986615;28;20023;-91
2023/06/06 11:03:35;;;;;;;8.02;4.20;;;;;;;;;;4981364;28;20015;-92
2023/06/06 11:06:00;;;;;;;11.27;4.25;;;;;;;;;;4983956;28;20026;-92
2023/06/06 11:08:46;;;;;;;9.40;3.85;;;;;;;;;;4985152;28;20082;-91
2023/06/06 11:11:18;;;;;;;12.82;4.05;;;;;;;;;;4982793;28;20030;-91
2023/06/06 11:14:03;;;;;;;13.02;3.75;;;;;;;;;;4982520;28;20121;-92
2023/06/06 11:16:32;;;;;;;4.57;3.17;;;;;;;;;;4986208;28;20078;-91
2023/06/06 11:19:00;;;;;;;7.70;3.65;;;;;;;;;;4984322;28;20050;-92
2023/06/06 11:21:34;;;;;;;11.02;4.03;;;;;;;;;;4988778;28;20053;-92
2023/06/06 11:27:21;;;;;;;8.73;3.55;;;;;;;;;;4984088;28;20069;-95
2023/06/06 11:36:32;;;;;;;;;;;;;;;;;;;;;
2023/06/06 11:39:19;;;;;;;14.05;3.65;;;;;;;;;;4913951;29;20035;-92
2023/06/06 11:41:57;;;;;;;8.45;3.55;;;;;;;;;;4912026;29;20055;-94
2023/06/06 11:44:30;;;;;;;12.27;2.85;;;;;;;;;;4927997;29;20602;-93
2023/06/06 11:46:55;;;;;;;9.82;3.30;;;;;;;;;;4911824;29;20154;-92
2023/06/06 11:49:21;;;;;;;15.25;3.47;;;;;;;;;;4923807;29;20084;-92
2023/06/06 11:51:56;;;;;;;7.53;3.22;;;;;;;;;;4978053;28;20561;-91
2023/06/06 11:54:31;;;;;;;15.75;3.42;;;;;;;;;;4979138;28;20022;-93
2023/06/06 11:56:57;;;;;;;8.45;3.30;;;;;;;;;;4982458;28;20030;-90
2023/06/06 11:59:35;;;;;;;10.23;3.22;;;;;;;;;;4976099;28;20473;-93
2023/06/06 12:02:06;;;;;;;4.50;2.60;;;;;;;;;;4981923;28;20397;-92
2023/06/06 12:04:31;;;;;;;6.95;3.22;;;;;;;;;;4988563;28;20485;-90
2023/06/06 12:07:03;;;;;;;5.53;2.92;;;;;;;;;;4986479;28;20053;-92
2023/06/06 12:09:34;;;;;;;6.85;2.70;;;;;;;;;;4982115;28;20073;-90
2023/06/06 12:12:06;;;;;;;6.07;2.78;;;;;;;;;;4987061;28;20022;-90
2023/06/06 12:14:54;;;;;;;7.72;3.08;;;;;;;;;;4990598;28;20109;-90
2023/06/06 12:17:29;;;;;;;7.57;2.72;;;;;;;;;;4987037;28;20050;-94
2023/06/06 12:19:55;;;;;;;5.13;2.97;;;;;;;;;;4986425;28;20073;-92
2023/06/06 12:22:32;;;;;;;8.07;2.92;;;;;;;;;;4988091;28;20019;-92
2023/06/06 12:25:01;;;;;;;5.75;2.58;;;;;;;;;;4984002;28;20026;-93
2023/06/06 12:27:27;;;;;;;4.35;3.05;;;;;;;;;;4986986;28;20022;-92
2023/06/06 12:29:55;;;;;;;11.48;2.80;;;;;;;;;;4984666;28;20038;-93
2023/06/06 12:32:38;;;;;;;16.45;3.13;;;;;;;;;;4983587;28;20598;-94
2023/06/06 12:35:05;;;;;;;7.68;2.90;;;;;;;;;;4979741;28;20121;-91
2023/06/06 12:38:01;;;;;;;4.97;2.88;;;;;;;;;;4986820;28;20572;-90
2023/06/06 12:40:33;;;;;;;9.40;2.63;;;;;;;;;;4981373;28;20022;-91
2023/06/06 12:43:03;;;;;;;6.40;2.88;;;;;;;;;;4982909;28;20564;-92
2023/06/06 12:45:28;;;;;;;5.30;2.65;;;;;;;;;;4987308;28;20033;-90
2023/06/06 12:47:54;;;;;;;7.85;2.80;;;;;;;;;;4985993;28;20022;-91
2023/06/06 12:50:23;;;;;;;6.25;2.88;;;;;;;;;;4984286;28;20031;-93
2023/06/06 12:52:49;;;;;;;10.85;3.22;;;;;;;;;;4991031;28;20022;-92
2023/06/06 12:55:15;;;;;;;10.60;2.55;;;;;;;;;;4985985;28;20034;-93
2023/06/06 12:57:40;;;;;;;4.40;2.75;;;;;;;;;;4984197;28;20118;-92
2023/06/06 13:00:10;;;;;;;3.10;2.25;;;;;;;;;;4981217;28;20549;-91
2023/06/06 13:02:39;;;;;;;7.88;2.78;;;;;;;;;;4984852;28;20026;-90
2023/06/06 13:05:05;;;;;;;6.18;2.40;;;;;;;;;;4985220;28;20080;-89
2023/06/06 13:07:30;;;;;;;12.30;2.85;;;;;;;;;;4987734;28;20437;-92
2023/06/06 13:09:59;;;;;;;4.75;2.50;;;;;;;;;;4989642;28;20021;-91
2023/06/06 13:12:28;;;;;;;4.95;2.38;;;;;;;;;;4985113;28;20193;-93
2023/06/06 13:14:59;;;;;;;5.43;2.25;;;;;;;;;;4985732;28;20022;-93
2023/06/06 13:17:28;;;;;;;5.07;2.95;;;;;;;;;;4989182;28;20065;-93
2023/06/06 13:19:53;;;;;;;6.45;2.55;;;;;;;;;;4990466;28;20033;-92
2023/06/06 13:22:19;;;;;;;5.55;2.83;;;;;;;;;;4988810;28;20498;-93
2023/06/06 13:25:12;;;;;;;3.30;2.28;;;;;;;;;;4984935;28;20052;-92
2023/06/06 13:28:02;;;;;;;5.38;2.97;;;;;;;;;;4982750;28;20049;-92
2023/06/06 13:30:39;;;;;;;6.82;2.67;;;;;;;;;;4986141;28;20030;-91
2023/06/06 13:33:05;;;;;;;5.32;2.30;;;;;;;;;;4987858;28;20512;-90
2023/06/06 13:35:30;;;;;;;5.63;3.38;;;;;;;;;;4985674;28;20030;-91
2023/06/06 13:37:55;;;;;;;9.20;2.92;;;;;;;;;;4980314;28;20026;-91
2023/06/06 13:40:21;;;;;;;4.43;2.80;;;;;;;;;;4980379;28;20077;-91
2023/06/06 13:42:46;;;;;;;5.72;2.92;;;;;;;;;;4985679;28;20277;-91
2023/06/06 13:45:15;;;;;;;5.15;2.88;;;;;;;;;;4984554;28;20374;-92
2023/06/06 13:47:40;;;;;;;8.05;2.58;;;;;;;;;;4986066;28;20054;-93
2023/06/06 13:50:06;;;;;;;4.93;2.72;;;;;;;;;;4986144;28;20073;-91
2023/06/06 13:52:34;;;;;;;4.05;2.67;;;;;;;;;;4986494;28;20515;-91
2023/06/06 13:55:04;;;;;;;6.82;3.20;;;;;;;;;;4984937;28;20544;-92
2023/06/06 13:57:41;;;;;;;4.80;2.78;;;;;;;;;;4984720;28;20034;-93
2023/06/06 14:00:11;;;;;;;7.50;3.08;;;;;;;;;;4982570;28;20027;-92
2023/06/06 14:02:37;;;;;;;2.83;2.08;;;;;;;;;;4992407;28;20421;-91
2023/06/06 14:05:02;;;;;;;6.07;2.75;;;;;;;;;;4986213;28;20080;-92
2023/06/06 14:07:37;;;;;;;6.47;2.85;;;;;;;;;;4985542;28;20030;-91
2023/06/06 14:10:02;;;;;;;6.00;2.92;;;;;;;;;;5004959;28;20064;-91
2023/06/06 14:12:28;;;;;;;4.20;2.58;;;;;;;;;;4989324;28;20022;-93
2023/06/06 14:15:02;;;;;;;11.15;3.00;;;;;;;;;;4989687;28;20513;-92
2023/06/06 14:17:37;;;;;;;4.25;2.67;;;;;;;;;;4990923;28;20031;-93
2023/06/06 14:20:02;;;;;;;8.95;3.38;;;;;;;;;;4989892;28;20019;-90
2023/06/06 14:22:33;;;;;;;7.28;3.30;;;;;;;;;;4990392;28;20011;-91
2023/06/06 14:25:02;;;;;;;5.72;2.90;;;;;;;;;;4989625;28;20032;-92
2023/06/06 14:27:30;;;;;;;6.90;3.00;;;;;;;;;;4988771;28;20026;-91
2023/06/06 14:29:55;;;;;;;5.72;2.63;;;;;;;;;;4982791;28;20274;-89
2023/06/06 14:32:28;;;;;;;8.98;2.35;;;;;;;;;;4985754;28;20026;-90
2023/06/06 14:34:53;;;;;;;9.32;3.53;;;;;;;;;;4995275;28;20030;-89
2023/06/06 14:37:18;;;;;;;5.40;2.93;;;;;;;;;;4988158;28;20379;-90
2023/06/06 14:39:52;;;;;;;5.95;2.70;;;;;;;;;;4983035;28;20265;-93
2023/06/06 14:42:18;;;;;;;10.15;2.85;;;;;;;;;;4990012;28;20105;-90
2023/06/06 14:44:44;;;;;;;12.77;3.90;;;;;;;;;;4985195;28;20463;-90
2023/06/06 14:47:09;;;;;;;6.60;3.00;;;;;;;;;;4986720;28;22102;-91
2023/06/06 14:50:14;;;;;;;5.45;2.75;;;;;;;;;;4988010;28;20101;-91